C6048 PADQ-PADQ

Flight info

Callsign C6048
Flight time 0h 22m
Altitude 1000
Route VFR OPR
Aircraft H60/M-DOV/C

Departure

Time 2026-05-04 00:57
Airport Kodiak Airport (PADQ)

Arrival

Time 2026-05-04 01:19
Airport Kodiak Airport (PADQ)
Time Latitude Longitude Altitude Speed Heading
2026-05-04 00:40 57.73754 -152.50768 11 ft 0 kts 135°
2026-05-04 00:56 57.73752 -152.50765 21 ft 2 kts 185°
2026-05-04 00:56 57.73714 -152.50819 49 ft 13 kts 224°
2026-05-04 00:56 57.73588 -152.50946 128 ft 32 kts 210°
2026-05-04 00:56 57.73208 -152.50856 301 ft 86 kts 165°
2026-05-04 00:57 57.72432 -152.50600 640 ft 139 kts 168°
2026-05-04 00:57 57.71356 -152.50251 707 ft 165 kts 168°
2026-05-04 00:57 57.70315 -152.49829 1185 ft 149 kts 168°
2026-05-04 00:57 57.69307 -152.49389 1195 ft 148 kts 168°
2026-05-04 00:58 57.68293 -152.48946 1223 ft 148 kts 168°
2026-05-04 00:58 57.67288 -152.48505 1239 ft 149 kts 168°
2026-05-04 00:58 57.66288 -152.48115 1235 ft 140 kts 174°
2026-05-04 00:58 57.65297 -152.47963 1243 ft 149 kts 176°
2026-05-04 00:59 57.64260 -152.47803 1244 ft 150 kts 176°
2026-05-04 00:59 57.63231 -152.47634 1496 ft 146 kts 176°
2026-05-04 00:59 57.62227 -152.47476 1788 ft 146 kts 176°
2026-05-04 00:59 57.61223 -152.47331 1803 ft 145 kts 176°
2026-05-04 01:00 57.60219 -152.47192 1802 ft 145 kts 176°
2026-05-04 01:00 57.59246 -152.47075 1807 ft 136 kts 176°
2026-05-04 01:00 57.58288 -152.46964 1816 ft 138 kts 176°
2026-05-04 01:00 57.57333 -152.46855 1806 ft 136 kts 177°
2026-05-04 01:01 57.56430 -152.46803 1387 ft 125 kts 179°
2026-05-04 01:01 57.55591 -152.46728 629 ft 117 kts 175°
2026-05-04 01:01 57.54828 -152.46783 359 ft 95 kts 168°
2026-05-04 01:01 57.54282 -152.46499 458 ft 69 kts 161°
2026-05-04 01:02 57.53826 -152.46248 498 ft 64 kts 156°
2026-05-04 01:02 57.53483 -152.46193 376 ft 44 kts 171°
2026-05-04 01:02 57.53213 -152.46212 470 ft 7 kts 47°
2026-05-04 01:02 57.53414 -152.46234 426 ft 35 kts 359°
2026-05-04 01:03 57.53501 -152.46235 413 ft 2 kts
2026-05-04 01:03 57.53473 -152.46236 411 ft 4 kts
2026-05-04 01:03 57.53448 -152.46238 428 ft 1 kts
2026-05-04 01:03 57.53452 -152.46238 429 ft 1 kts
2026-05-04 01:04 57.53467 -152.46236 422 ft 3 kts
2026-05-04 01:04 57.53484 -152.46231 396 ft 2 kts
2026-05-04 01:04 57.53489 -152.46207 389 ft 1 kts
2026-05-04 01:04 57.53496 -152.46192 366 ft 2 kts
2026-05-04 01:05 57.53502 -152.46177 358 ft 1 kts
2026-05-04 01:05 57.53508 -152.46163 364 ft 1 kts
2026-05-04 01:05 57.53514 -152.46149 372 ft 2 kts
2026-05-04 01:05 57.53520 -152.46134 383 ft 1 kts
2026-05-04 01:06 57.53525 -152.46120 394 ft 1 kts
2026-05-04 01:06 57.53525 -152.46137 373 ft 2 kts
2026-05-04 01:06 57.53520 -152.46164 357 ft 2 kts
2026-05-04 01:06 57.53512 -152.46183 358 ft 3 kts
2026-05-04 01:07 57.53505 -152.46192 359 ft 0 kts
2026-05-04 01:07 57.53506 -152.46191 314 ft 0 kts
2026-05-04 01:07 57.53506 -152.46192 315 ft 0 kts
2026-05-04 01:08 57.53506 -152.46191 316 ft 0 kts
2026-05-04 01:08 57.53506 -152.46190 316 ft 0 kts
2026-05-04 01:08 57.53506 -152.46191 319 ft 0 kts
2026-05-04 01:09 57.53506 -152.46190 319 ft 0 kts
2026-05-04 01:09 57.53506 -152.46191 319 ft 0 kts
2026-05-04 01:10 57.53506 -152.46190 291 ft 0 kts
2026-05-04 01:11 57.53506 -152.46189 298 ft 0 kts
2026-05-04 01:11 57.53506 -152.46190 299 ft 0 kts
2026-05-04 01:11 57.53506 -152.46189 299 ft 0 kts
2026-05-04 01:12 57.53506 -152.46190 299 ft 0 kts
2026-05-04 01:12 57.53506 -152.46189 299 ft 0 kts
2026-05-04 01:12 57.53506 -152.46188 299 ft 0 kts
2026-05-04 01:12 57.53558 -152.46210 340 ft 27 kts
2026-05-04 01:13 57.53927 -152.46172 757 ft 77 kts
2026-05-04 01:13 57.54650 -152.46263 1311 ft 123 kts 352°
2026-05-04 01:13 57.55538 -152.46660 1918 ft 134 kts 349°
2026-05-04 01:13 57.56469 -152.47034 2580 ft 141 kts 349°
2026-05-04 01:14 57.57423 -152.47389 2640 ft 143 kts 349°
2026-05-04 01:14 57.58386 -152.47749 2671 ft 141 kts 349°
2026-05-04 01:14 57.59396 -152.47991 2670 ft 143 kts 357°
2026-05-04 01:14 57.60331 -152.48167 2681 ft 133 kts 357°
2026-05-04 01:15 57.61254 -152.48348 2687 ft 132 kts 357°
2026-05-04 01:15 57.62180 -152.48549 2691 ft 135 kts 354°
2026-05-04 01:15 57.63110 -152.48812 2681 ft 136 kts 354°
2026-05-04 01:15 57.64053 -152.49064 2692 ft 137 kts 355°
2026-05-04 01:16 57.64970 -152.49316 2689 ft 135 kts 354°
2026-05-04 01:16 57.65903 -152.49586 2691 ft 135 kts 355°
2026-05-04 01:16 57.66825 -152.49839 2695 ft 132 kts 354°
2026-05-04 01:16 57.67755 -152.50093 2694 ft 136 kts 355°
2026-05-04 01:17 57.68684 -152.50349 2658 ft 134 kts 354°
2026-05-04 01:17 57.69597 -152.50596 2474 ft 132 kts 354°
2026-05-04 01:17 57.70501 -152.50834 2266 ft 130 kts 355°
2026-05-04 01:17 57.71405 -152.51011 1933 ft 130 kts
2026-05-04 01:18 57.72248 -152.50629 1522 ft 113 kts 22°
2026-05-04 01:18 57.72934 -152.50178 1326 ft 100 kts 20°
2026-05-04 01:18 57.73506 -152.49708 1316 ft 82 kts 26°
2026-05-04 01:18 57.74003 -152.49214 961 ft 77 kts 26°
2026-05-04 01:19 57.74446 -152.49024 795 ft 55 kts 322°
2026-05-04 01:19 57.74541 -152.49468 563 ft 40 kts 228°
2026-05-04 01:19 57.74305 -152.49846 440 ft 46 kts 218°
2026-05-04 01:19 57.74054 -152.50197 315 ft 46 kts 223°
2026-05-04 01:20 57.73938 -152.50818 284 ft 49 kts 215°
2026-05-04 01:20 57.73717 -152.51056 242 ft 35 kts 117°
2026-05-04 01:20 57.73662 -152.50798 131 ft 17 kts 62°
2026-05-04 01:20 57.73700 -152.50670 37 ft 10 kts 72°
2026-05-04 01:21 57.73706 -152.50625 13 ft 1 kts 81°
2026-05-04 01:21 57.73706 -152.50622 12 ft 0 kts 81°